Time;durP1;ratioP1;P1;durP2;ratioP2;P2;SDS_P1;SDS_P2;PMS_P1;PMS_P2;Temp;Humidity;BMP_temperature;BMP_pressure;BME280_temperature;BME280_humidity;BME280_pressure;Samples;Min_cycle;Max_cycle;Signal;HPM_P1;HPM_P2
2021/01/18 00:02:12;;;;;;;11.30;7.67;;;;;;;2.06;100.00;99397.47;4905153;28;103139;-77
2021/01/18 00:04:45;;;;;;;11.67;7.93;;;;;;;2.05;100.00;99400.94;4882248;28;104078;-76
2021/01/18 00:07:12;;;;;;;13.17;8.03;;;;;;;2.01;100.00;99404.56;4905585;28;105720;-76
2021/01/18 00:09:39;;;;;;;10.43;7.93;;;;;;;2.08;100.00;99395.66;4905828;28;103193;-76
2021/01/18 00:12:07;;;;;;;12.07;7.83;;;;;;;2.03;100.00;99397.53;4907417;28;102587;-77
2021/01/18 00:14:34;;;;;;;10.47;8.13;;;;;;;2.06;100.00;99397.47;4906277;28;104194;-77
2021/01/18 00:17:05;;;;;;;16.77;8.20;;;;;;;2.06;100.00;99396.59;4904429;28;105052;-76
2021/01/18 00:19:32;;;;;;;11.10;7.60;;;;;;;2.14;100.00;99395.50;4905917;28;103093;-77
2021/01/18 00:22:00;;;;;;;10.07;8.07;;;;;;;2.09;100.00;99391.31;4906596;28;103204;-76
2021/01/18 00:24:28;;;;;;;11.60;7.90;;;;;;;2.08;100.00;99394.78;4903849;28;105292;-76
2021/01/18 00:26:56;;;;;;;14.63;8.17;;;;;;;2.04;100.00;99385.34;4904428;28;104154;-76
2021/01/18 00:29:23;;;;;;;7.07;6.37;;;;;;;2.06;100.00;99388.78;4905546;28;102577;-77
2021/01/18 00:31:50;;;;;;;9.23;6.90;;;;;;;2.09;100.00;99386.09;4904223;28;103297;-77
2021/01/18 00:34:18;;;;;;;8.63;6.60;;;;;;;1.98;100.00;99394.19;4905662;28;104816;-75
2021/01/18 00:36:47;;;;;;;10.83;7.17;;;;;;;2.01;100.00;99394.13;4904340;28;106733;-75
2021/01/18 00:39:15;;;;;;;8.80;7.00;;;;;;;1.91;100.00;99399.63;4906129;28;102585;-75
2021/01/18 00:41:42;;;;;;;8.87;7.00;;;;;;;1.97;100.00;99391.63;4906305;28;103100;-75
2021/01/18 00:44:09;;;;;;;9.83;6.90;;;;;;;2.02;100.00;99394.97;4904567;28;103302;-75
2021/01/18 00:46:37;;;;;;;7.20;6.30;;;;;;;2.01;100.00;99393.25;4905970;28;105179;-75
2021/01/18 00:49:05;;;;;;;8.03;6.40;;;;;;;1.98;100.00;99383.78;4904754;28;102647;-74
2021/01/18 00:51:36;;;;;;;10.13;7.23;;;;;;;2.01;100.00;99388.06;4906406;28;103035;-77
2021/01/18 00:54:04;;;;;;;9.70;6.30;;;;;;;2.05;100.00;99382.69;4902498;28;105472;-77
2021/01/18 00:56:37;;;;;;;7.53;6.00;;;;;;;2.05;100.00;99385.31;4919918;28;103645;-74
2021/01/18 00:59:05;;;;;;;8.00;6.20;;;;;;;2.06;100.00;99386.16;4904228;28;103025;-74
2021/01/18 01:01:47;;;;;;;9.77;6.93;;;;;;;2.07;100.00;99388.75;4904303;28;103043;-74
2021/01/18 01:04:15;;;;;;;9.77;6.90;;;;;;;2.05;100.00;99394.91;4904683;28;103986;-75
2021/01/18 01:06:42;;;;;;;9.70;7.17;;;;;;;2.04;100.00;99387.97;4904818;28;103987;-74
2021/01/18 01:09:09;;;;;;;8.50;6.77;;;;;;;2.08;100.00;99392.19;4904148;28;103308;-74
2021/01/18 01:11:44;;;;;;;9.33;6.40;;;;;;;2.07;100.00;99396.56;4904334;28;102957;-74
2021/01/18 01:14:11;;;;;;;7.80;6.07;;;;;;;2.02;100.00;99406.22;4905002;28;103924;-74
2021/01/18 01:16:38;;;;;;;8.40;5.77;;;;;;;2.08;100.00;99394.78;4904827;28;104371;-77
2021/01/18 01:19:05;;;;;;;8.07;6.43;;;;;;;2.05;100.00;99397.50;4905732;28;102864;-76
2021/01/18 01:21:33;;;;;;;9.40;6.60;;;;;;;2.09;100.00;99399.13;4903525;28;102744;-76
2021/01/18 01:24:00;;;;;;;7.73;5.67;;;;;;;2.10;100.00;99398.22;4904384;28;104523;-76
2021/01/18 01:26:27;;;;;;;5.70;5.10;;;;;;;2.09;100.00;99404.34;4905644;28;103675;-76
2021/01/18 01:28:55;;;;;;;8.73;5.93;;;;;;;2.10;100.00;99398.22;4904989;28;103095;-76
2021/01/18 01:31:22;;;;;;;7.33;5.83;;;;;;;2.08;100.00;99400.00;4905741;28;102660;-76
2021/01/18 01:33:53;;;;;;;8.57;6.50;;;;;;;2.04;100.00;99398.41;4904123;28;105279;-77
2021/01/18 01:36:20;;;;;;;8.00;5.97;;;;;;;2.12;100.00;99396.44;4903729;28;105120;-74
2021/01/18 01:38:47;;;;;;;6.03;5.43;;;;;;;2.13;100.00;99403.38;4904723;28;102960;-74
2021/01/18 01:41:14;;;;;;;6.13;5.53;;;;;;;2.12;100.00;99404.25;4905375;28;103081;-74
2021/01/18 01:43:41;;;;;;;7.53;6.30;;;;;;;2.11;100.00;99400.78;4903642;28;106362;-74
2021/01/18 01:46:10;;;;;;;7.60;5.50;;;;;;;2.11;100.00;99412.97;4901618;28;104108;-74
2021/01/18 01:48:38;;;;;;;7.10;5.67;;;;;;;2.14;100.00;99412.88;4903252;28;103190;-74
2021/01/18 01:51:05;;;;;;;5.30;4.53;;;;;;;2.14;100.00;99415.47;4904601;28;103660;-74
2021/01/18 01:53:34;;;;;;;9.00;5.77;;;;;;;2.14;100.00;99420.69;4904710;28;104465;-74
2021/01/18 01:56:02;;;;;;;5.80;5.10;;;;;;;2.20;100.00;99420.53;4904426;28;103774;-74
2021/01/18 01:58:30;;;;;;;4.90;4.40;;;;;;;2.22;100.00;99414.38;4903787;28;103110;-74
2021/01/18 02:00:59;;;;;;;7.10;5.63;;;;;;;2.20;100.00;99413.56;4901253;28;102760;-74
2021/01/18 02:03:38;;;;;;;5.70;5.00;;;;;;;2.17;100.00;99420.63;4903241;28;106024;-74
2021/01/18 02:06:05;;;;;;;5.37;4.73;;;;;;;2.21;100.00;99437.91;4904579;28;104117;-74
2021/01/18 02:08:33;;;;;;;5.53;4.30;;;;;;;2.18;100.00;99425.81;4905069;28;103116;-74
2021/01/18 02:11:03;;;;;;;5.77;4.20;;;;;;;2.16;100.00;99418.94;4904408;28;103967;-73
2021/01/18 02:13:44;;;;;;;5.80;3.73;;;;;;;2.19;100.00;99424.06;4902676;28;106832;-74
2021/01/18 02:16:20;;;;;;;4.50;3.87;;;;;;;2.22;100.00;99426.56;4903378;28;103768;-74
2021/01/18 02:19:02;;;;;;;3.80;3.10;;;;;;;2.23;100.00;99423.06;4904824;28;102697;-75
2021/01/18 02:22:19;;;;;;;4.93;4.43;;;;;;;2.17;100.00;99425.84;4905367;28;103605;-73
2021/01/18 02:25:19;;;;;;;5.13;3.40;;;;;;;2.23;100.00;99425.66;4811281;29;107175;-74
2021/01/18 02:28:15;;;;;;;6.17;4.30;;;;;;;2.21;100.00;99428.34;4895120;28;103629;-74
2021/01/18 02:31:22;;;;;;;5.63;4.80;;;;;;;2.16;100.00;99435.41;4894540;28;103039;-75
2021/01/18 02:34:24;;;;;;;7.07;4.40;;;;;;;2.18;100.00;99435.38;4906545;28;103073;-75
2021/01/18 02:37:33;;;;;;;6.30;5.00;;;;;;;2.18;100.00;99444.06;4907604;28;104900;-74
2021/01/18 02:40:07;;;;;;;8.90;6.90;;;;;;;2.20;100.00;99444.84;4862113;28;103258;-74
2021/01/18 02:42:41;;;;;;;6.70;6.00;;;;;;;2.22;100.00;99450.88;4902192;28;103603;-74
2021/01/18 02:45:11;;;;;;;8.47;6.73;;;;;;;2.21;100.00;99450.94;4908067;28;102906;-74
2021/01/18 02:47:41;;;;;;;8.13;6.63;;;;;;;2.22;100.00;99443.06;4907592;28;103311;-74
2021/01/18 02:50:10;;;;;;;10.33;7.73;;;;;;;2.19;100.00;99444.91;4908573;28;103846;-74
2021/01/18 02:52:41;;;;;;;9.70;7.47;;;;;;;2.23;100.00;99451.75;4906852;28;102723;-74
2021/01/18 02:55:11;;;;;;;8.93;7.80;;;;;;;2.22;100.00;99450.03;4907865;28;105090;-74
2021/01/18 02:57:40;;;;;;;10.53;7.77;;;;;;;2.21;100.00;99445.72;4906554;28;103441;-74
2021/01/18 03:00:12;;;;;;;10.57;7.43;;;;;;;2.23;100.00;99441.31;4899085;28;103746;-74
2021/01/18 03:02:46;;;;;;;11.37;8.53;;;;;;;2.14;100.00;99441.56;4902930;28;103899;-73
2021/01/18 03:05:22;;;;;;;11.83;8.37;;;;;;;2.14;100.00;99438.94;4907205;28;102922;-74
2021/01/18 03:07:57;;;;;;;10.30;8.77;;;;;;;2.10;100.00;99442.56;4905191;28;104679;-74
2021/01/18 03:10:35;;;;;;;13.03;9.17;;;;;;;2.17;100.00;99444.94;4904955;28;103512;-74
2021/01/18 03:13:05;;;;;;;9.90;7.47;;;;;;;2.21;100.00;99437.91;4905946;28;103061;-74
2021/01/18 03:15:38;;;;;;;10.70;8.13;;;;;;;2.19;100.00;99434.50;4905330;28;103173;-74
2021/01/18 03:18:09;;;;;;;13.20;9.33;;;;;;;2.16;100.00;99431.97;4903043;28;103777;-74
2021/01/18 03:20:38;;;;;;;9.97;7.93;;;;;;;2.18;100.00;99430.16;4906077;28;104455;-74
2021/01/18 03:23:07;;;;;;;9.20;8.03;;;;;;;2.16;100.00;99424.97;4906481;28;103022;-74
2021/01/18 03:25:47;;;;;;;9.27;7.73;;;;;;;2.22;100.00;99434.38;4907854;28;103024;-74
2021/01/18 03:28:15;;;;;;;11.63;8.57;;;;;;;2.22;100.00;99429.16;4905874;28;103250;-74
2021/01/18 03:30:42;;;;;;;8.77;7.10;;;;;;;2.27;100.00;99432.53;4905889;28;104771;-74
2021/01/18 03:33:10;;;;;;;9.50;6.57;;;;;;;2.19;100.00;99429.28;4905826;28;103132;-74
2021/01/18 03:35:37;;;;;;;9.90;7.90;;;;;;;2.14;100.00;99433.72;4904569;28;103283;-74
2021/01/18 03:38:05;;;;;;;12.90;8.97;;;;;;;2.03;100.00;99430.56;4903689;28;104760;-74
2021/01/18 03:40:33;;;;;;;12.50;8.87;;;;;;;2.02;100.00;99439.28;4906878;28;105537;-74
2021/01/18 03:43:03;;;;;;;15.40;8.70;;;;;;;1.97;100.00;99434.19;4905328;28;103098;-74
2021/01/18 03:45:33;;;;;;;10.90;8.57;;;;;;;2.02;100.00;99434.91;4905767;28;102802;-74
2021/01/18 03:48:00;;;;;;;10.07;7.80;;;;;;;2.11;100.00;99437.28;4906521;28;104836;-74
2021/01/18 03:50:27;;;;;;;8.53;7.13;;;;;;;2.18;100.00;99436.25;4907486;28;104157;-74
2021/01/18 03:52:55;;;;;;;10.77;8.13;;;;;;;2.15;100.00;99432.84;4906801;28;102987;-74
2021/01/18 03:55:22;;;;;;;9.23;8.17;;;;;;;2.10;100.00;99439.94;4906267;28;102994;-74
2021/01/18 03:57:54;;;;;;;11.37;7.70;;;;;;;2.13;100.00;99432.03;4905399;28;106444;-74
2021/01/18 04:00:23;;;;;;;13.27;9.13;;;;;;;2.16;100.00;99435.41;4905592;28;103752;-74
2021/01/18 04:02:51;;;;;;;11.93;8.13;;;;;;;2.14;100.00;99425.91;4904751;28;103268;-74
2021/01/18 04:05:20;;;;;;;11.17;8.27;;;;;;;2.10;100.00;99427.78;4904818;28;103211;-74
2021/01/18 04:07:48;;;;;;;10.63;8.20;;;;;;;2.06;100.00;99436.56;4904622;28;103192;-74
2021/01/18 04:10:17;;;;;;;14.23;8.97;;;;;;;2.12;100.00;99440.75;4906002;28;104651;-74
2021/01/18 04:12:46;;;;;;;9.60;7.83;;;;;;;2.17;100.00;99449.28;4906782;28;103002;-74
2021/01/18 04:15:15;;;;;;;13.33;8.10;;;;;;;2.11;100.00;99446.84;4905895;28;102977;-74
2021/01/18 04:17:44;;;;;;;13.93;9.00;;;;;;;2.01;100.00;99455.81;4904605;28;107042;-75
2021/01/18 04:20:12;;;;;;;12.73;7.63;;;;;;;2.07;100.00;99464.34;4905202;28;103675;-75
2021/01/18 04:22:45;;;;;;;11.00;8.33;;;;;;;2.07;100.00;99464.34;4905396;28;102910;-75
2021/01/18 04:25:13;;;;;;;11.63;7.80;;;;;;;2.06;100.00;99469.56;4905928;28;102828;-75
2021/01/18 04:27:45;;;;;;;13.30;7.57;;;;;;;2.13;100.00;99471.16;4905232;28;105104;-75
2021/01/18 04:30:13;;;;;;;15.63;8.33;;;;;;;2.13;100.00;99477.19;4903843;28;104576;-75
2021/01/18 04:32:41;;;;;;;9.47;6.57;;;;;;;2.11;100.00;99470.31;4902461;28;103165;-77
2021/01/18 04:35:10;;;;;;;12.13;6.33;;;;;;;2.14;100.00;99478.06;4906699;28;102704;-80
2021/01/18 04:37:37;;;;;;;11.33;8.37;;;;;;;2.15;100.00;99474.56;4905379;28;105067;-74
2021/01/18 04:40:06;;;;;;;17.17;8.33;;;;;;;2.16;100.00;99471.06;4905507;28;103834;-75
2021/01/18 04:42:34;;;;;;;10.43;7.17;;;;;;;2.17;100.00;99473.63;4906916;28;103041;-76
2021/01/18 04:45:05;;;;;;;11.70;8.17;;;;;;;2.22;100.00;99469.13;4906217;28;103169;-76
2021/01/18 04:47:37;;;;;;;14.00;7.70;;;;;;;2.17;100.00;99477.97;4905654;28;106275;-80
2021/01/18 04:50:12;;;;;;;11.50;8.33;;;;;;;2.18;100.00;99472.75;4904720;28;104285;-85
2021/01/18 04:52:52;;;;;;;8.53;6.53;;;;;;;2.15;100.00;99470.22;4888518;28;102684;-78
2021/01/18 04:55:27;;;;;;;17.23;7.80;;;;;;;2.14;100.00;99475.44;4902482;28;102841;-80
2021/01/18 04:58:04;;;;;;;16.63;8.17;;;;;;;2.03;100.00;99469.66;4901546;28;104405;-81
2021/01/18 05:00:44;;;;;;;12.23;7.20;;;;;;;2.07;100.00;99469.56;4904706;28;103752;-81
2021/01/18 05:03:13;;;;;;;12.43;7.87;;;;;;;2.08;100.00;99470.38;4905091;28;103004;-81
2021/01/18 05:06:17;;;;;;;9.77;6.10;;;;;;;2.11;100.00;99465.09;4905454;28;102803;-81
2021/01/18 05:09:18;;;;;;;13.77;7.60;;;;;;;2.07;100.00;99477.38;4905089;28;105149;-81
2021/01/18 05:11:47;;;;;;;14.97;7.57;;;;;;;2.10;100.00;99471.22;4904732;28;103157;-81
2021/01/18 05:14:15;;;;;;;11.80;7.53;;;;;;;2.09;100.00;99477.31;4904918;28;103117;-81
2021/01/18 05:16:46;;;;;;;13.50;7.60;;;;;;;2.14;100.00;99478.06;4904195;28;103116;-82
2021/01/18 05:19:14;;;;;;;12.13;7.13;;;;;;;2.16;100.00;99471.91;4905655;28;104410;-81
2021/01/18 05:21:43;;;;;;;13.10;7.07;;;;;;;2.10;100.00;99485.13;4905474;28;103940;-79
2021/01/18 05:24:11;;;;;;;19.60;7.77;;;;;;;2.04;100.00;99472.25;4901428;28;103217;-78
2021/01/18 05:26:39;;;;;;;13.23;7.90;;;;;;;2.03;100.00;99480.94;4902643;28;102686;-75
2021/01/18 05:29:06;;;;;;;16.53;7.80;;;;;;;2.08;100.00;99484.28;4904361;28;104411;-76
2021/01/18 05:31:35;;;;;;;14.37;6.63;;;;;;;2.04;100.00;99487.03;4904416;28;104541;-76
2021/01/18 05:34:04;;;;;;;12.93;7.10;;;;;;;2.03;100.00;99488.75;4905382;28;102739;-76
2021/01/18 05:36:36;;;;;;;10.80;6.43;;;;;;;2.01;100.00;99482.75;4903832;28;103396;-76
2021/01/18 05:39:15;;;;;;;12.90;8.10;;;;;;;1.90;100.00;99484.78;4903161;28;104110;-76
2021/01/18 05:41:44;;;;;;;15.60;8.10;;;;;;;1.89;100.00;99487.41;4897047;28;103797;-76
2021/01/18 05:44:12;;;;;;;10.07;6.17;;;;;;;1.88;100.00;99491.75;4902272;28;102826;-77
2021/01/18 05:46:40;;;;;;;13.57;7.60;;;;;;;1.89;100.00;99503.88;4885047;28;103125;-77
2021/01/18 05:49:10;;;;;;;9.47;6.60;;;;;;;1.95;100.00;99508.97;4899653;28;103877;-76
2021/01/18 05:51:37;;;;;;;9.50;7.23;;;;;;;1.95;100.00;99508.97;4899470;28;104182;-76
2021/01/18 05:54:07;;;;;;;11.67;7.30;;;;;;;1.92;100.00;99501.22;4899716;28;103082;-77
2021/01/18 05:56:44;;;;;;;12.17;7.57;;;;;;;1.91;100.00;99506.47;4900798;28;105009;-76
2021/01/18 05:59:19;;;;;;;10.37;7.47;;;;;;;1.81;100.00;99504.97;4904806;28;103842;-76
2021/01/18 06:01:47;;;;;;;12.37;6.97;;;;;;;1.83;100.00;99513.59;4904103;28;106080;-76
2021/01/18 06:04:16;;;;;;;11.00;6.87;;;;;;;1.82;100.00;99519.72;4903016;28;103090;-76
2021/01/18 06:06:52;;;;;;;12.27;7.30;;;;;;;1.83;100.00;99518.81;4904940;28;102948;-76
2021/01/18 06:09:19;;;;;;;11.43;7.13;;;;;;;1.86;100.00;99530.03;4904717;28;106494;-76
2021/01/18 06:11:47;;;;;;;10.80;7.13;;;;;;;1.97;100.00;99527.16;4906066;28;103920;-76
2021/01/18 06:14:18;;;;;;;8.67;6.30;;;;;;;2.00;100.00;99527.94;4901408;28;103909;-76
2021/01/18 06:16:47;;;;;;;8.37;6.30;;;;;;;2.03;100.00;99532.22;4906157;28;103098;-76
2021/01/18 06:19:21;;;;;;;10.97;7.23;;;;;;;1.99;100.00;99528.00;4887725;28;106543;-76
2021/01/18 06:21:49;;;;;;;11.93;7.17;;;;;;;2.02;100.00;99526.13;4906256;28;104369;-76
2021/01/18 06:24:26;;;;;;;7.97;6.47;;;;;;;2.05;100.00;99531.28;4905355;28;103491;-75
2021/01/18 06:26:54;;;;;;;11.53;7.07;;;;;;;2.05;100.00;99533.06;4907658;28;103205;-75
2021/01/18 06:29:39;;;;;;;10.03;6.80;;;;;;;2.08;100.00;99540.78;4903154;28;104506;-76
2021/01/18 06:32:08;;;;;;;15.20;7.20;;;;;;;2.09;100.00;99542.50;4903536;28;107170;-75
2021/01/18 06:34:36;;;;;;;12.27;6.80;;;;;;;2.05;100.00;99546.91;4907907;28;103137;-75
2021/01/18 06:37:04;;;;;;;10.50;6.80;;;;;;;2.04;100.00;99545.22;4907094;28;103138;-77
2021/01/18 06:39:32;;;;;;;14.53;7.47;;;;;;;2.04;100.00;99549.56;4904886;28;103933;-77
2021/01/18 06:42:03;;;;;;;14.10;7.13;;;;;;;2.07;100.00;99552.09;4905781;28;105164;-75
2021/01/18 06:44:34;;;;;;;9.47;6.70;;;;;;;2.06;100.00;99553.00;4906765;28;103962;-75
2021/01/18 06:47:02;;;;;;;9.73;7.00;;;;;;;2.06;100.00;99542.56;4903730;28;103105;-77
2021/01/18 06:49:29;;;;;;;7.47;5.33;;;;;;;2.09;100.00;99542.50;4906812;28;103333;-78
2021/01/18 06:51:58;;;;;;;10.13;5.83;;;;;;;2.12;100.00;99553.72;4906818;28;103617;-77
2021/01/18 06:54:29;;;;;;;11.37;5.93;;;;;;;2.12;100.00;99552.84;4906229;28;103146;-77
2021/01/18 06:57:13;;;;;;;12.50;6.80;;;;;;;2.04;100.00;99555.66;4886435;28;103207;-78
2021/01/18 06:59:51;;;;;;;10.33;6.67;;;;;;;2.05;99.55;99561.72;4888185;28;106284;-78
2021/01/18 07:02:33;;;;;;;7.90;5.50;;;;;;;2.07;100.00;99570.34;4906596;28;105116;-77
2021/01/18 07:05:10;;;;;;;8.50;5.63;;;;;;;2.12;100.00;99574.56;4905691;28;103295;-77
2021/01/18 07:07:39;;;;;;;8.37;5.43;;;;;;;2.08;99.77;99566.84;4905933;28;104348;-79
2021/01/18 07:10:09;;;;;;;8.00;5.70;;;;;;;2.04;99.68;99570.44;4903712;28;103942;-77
2021/01/18 07:12:38;;;;;;;10.23;6.53;;;;;;;2.08;99.66;99575.53;4903937;28;104937;-77
2021/01/18 07:15:07;;;;;;;7.10;5.90;;;;;;;2.05;99.22;99579.97;4904988;28;103178;-77
2021/01/18 07:17:53;;;;;;;9.03;5.93;;;;;;;2.06;99.18;99581.66;4904904;28;103498;-77
2021/01/18 07:20:23;;;;;;;6.83;4.97;;;;;;;2.11;99.14;99577.19;4904728;28;103703;-77
2021/01/18 07:23:25;;;;;;;11.53;7.00;;;;;;;1.98;98.71;99588.81;4907572;28;110318;-77
2021/01/18 07:26:05;;;;;;;10.00;4.53;;;;;;;2.12;98.84;99585.00;4906260;28;103087;-77
2021/01/18 07:28:34;;;;;;;9.57;5.50;;;;;;;2.06;98.42;99594.69;4907582;28;102660;-85
2021/01/18 07:31:01;;;;;;;8.73;5.13;;;;;;;2.16;98.34;99586.63;4904466;28;103874;-80
2021/01/18 07:33:29;;;;;;;9.10;6.03;;;;;;;2.18;98.55;99597.03;4905136;28;106168;-81
2021/01/18 07:35:58;;;;;;;9.13;5.83;;;;;;;2.17;98.60;99592.69;4905886;28;102605;-83
2021/01/18 07:38:27;;;;;;;10.37;6.77;;;;;;;2.12;98.75;99594.56;4904874;28;103528;-83
2021/01/18 07:41:15;;;;;;;12.43;6.57;;;;;;;2.16;98.29;99591.81;4903285;28;103593;-84
2021/01/18 07:43:45;;;;;;;8.67;5.87;;;;;;;2.11;98.25;99608.47;4905775;28;102805;-83
2021/01/18 07:46:40;;;;;;;11.17;6.57;;;;;;;2.21;98.32;99610.84;4896560;28;103306;-83
2021/01/18 07:49:44;;;;;;;11.10;6.80;;;;;;;2.19;99.21;99610.00;4904544;28;103233;-84
2021/01/18 07:52:15;;;;;;;11.70;6.67;;;;;;;2.15;98.90;99610.13;4894813;28;104089;-82
2021/01/18 07:54:43;;;;;;;9.67;7.30;;;;;;;2.18;98.84;99610.06;4906841;28;105340;-87
2021/01/18 07:57:38;;;;;;;15.13;7.63;;;;;;;2.18;99.12;99612.66;4920545;28;102888;-87
2021/01/18 08:00:29;;;;;;;11.43;6.77;;;;;;;2.25;98.40;99616.81;4925675;28;103121;-84
2021/01/18 08:03:26;;;;;;;12.60;7.80;;;;;;;2.29;98.32;99634.13;4910092;28;103193;-85
2021/01/18 08:06:05;;;;;;;8.93;5.93;;;;;;;2.43;98.56;99626.81;4889561;28;104434;-85
2021/01/18 08:08:34;;;;;;;8.80;6.00;;;;;;;2.50;98.35;99622.31;4904601;28;103270;-86
2021/01/18 08:11:04;;;;;;;7.10;5.80;;;;;;;2.43;98.66;99632.03;4905462;28;102850;-85
2021/01/18 08:14:16;;;;;;;8.73;6.07;;;;;;;2.44;98.02;99636.38;4901622;28;103973;-86
2021/01/18 08:16:46;;;;;;;10.30;6.27;;;;;;;2.48;98.23;99635.38;4846529;29;103723;-85
2021/01/18 08:19:24;;;;;;;8.83;5.40;;;;;;;2.49;97.60;99637.09;4846061;29;103088;-85
2021/01/18 08:21:59;;;;;;;14.00;7.53;;;;;;;2.40;97.86;99626.88;4874693;28;104364;-85
2021/01/18 08:24:49;;;;;;;12.70;7.43;;;;;;;2.44;98.06;99628.53;4902433;28;104705;-85
2021/01/18 08:27:34;;;;;;;9.47;6.90;;;;;;;2.46;97.70;99631.97;4907870;28;104521;-83
2021/01/18 08:30:01;;;;;;;9.73;7.23;;;;;;;2.43;97.32;99634.66;4904591;28;102919;-83
2021/01/18 08:32:59;;;;;;;9.07;6.53;;;;;;;2.52;97.02;99638.78;4904861;28;103622;-83
2021/01/18 08:35:31;;;;;;;9.53;6.70;;;;;;;2.58;97.11;99634.28;4903321;28;103986;-83
2021/01/18 08:38:07;;;;;;;10.30;6.87;;;;;;;2.57;97.12;99645.59;4905042;28;104097;-82
2021/01/18 08:40:43;;;;;;;12.40;6.80;;;;;;;2.60;97.22;99639.44;4915862;28;102998;-82
2021/01/18 08:43:11;;;;;;;8.87;6.53;;;;;;;2.72;96.53;99634.75;4909159;28;103435;-84
2021/01/18 08:45:41;;;;;;;7.97;6.20;;;;;;;2.81;96.50;99631.03;4902357;28;103767;-84
2021/01/18 08:48:11;;;;;;;12.60;6.57;;;;;;;2.77;96.83;99634.63;4896803;28;103911;-82
2021/01/18 08:50:43;;;;;;;6.30;5.37;;;;;;;2.78;96.79;99649.38;4887785;28;103001;-84
2021/01/18 08:53:27;;;;;;;6.87;5.97;;;;;;;2.88;96.23;99630.84;4905647;28;103307;-84
2021/01/18 08:55:55;;;;;;;7.23;6.00;;;;;;;2.81;96.43;99631.91;4906037;28;104196;-83
2021/01/18 08:58:44;;;;;;;8.80;6.57;;;;;;;2.66;96.44;99634.94;4905918;28;106512;-84
2021/01/18 09:01:16;;;;;;;10.97;7.00;;;;;;;2.72;97.62;99634.75;4902996;28;103012;-86
2021/01/18 09:03:45;;;;;;;7.73;6.17;;;;;;;2.89;97.67;99635.16;4887960;28;102818;-81
2021/01/18 09:06:13;;;;;;;7.17;5.97;;;;;;;2.99;96.76;99638.38;4883361;28;106262;-83
2021/01/18 09:08:41;;;;;;;9.67;6.87;;;;;;;2.98;96.48;99641.03;4905250;28;103706;-84
2021/01/18 09:11:11;;;;;;;10.17;7.73;;;;;;;2.86;96.80;99637.00;4906034;28;103244;-80
2021/01/18 09:13:40;;;;;;;9.20;6.80;;;;;;;2.90;96.58;99639.50;4906632;28;103429;-86
2021/01/18 09:16:09;;;;;;;8.93;7.17;;;;;;;3.08;95.97;99634.69;4906478;28;103936;-90
2021/01/18 09:18:37;;;;;;;12.50;7.23;;;;;;;3.03;96.15;99645.25;4903380;28;103837;-88
2021/01/18 09:21:08;;;;;;;8.53;7.33;;;;;;;3.13;95.16;99638.00;4905811;28;102994;-89
2021/01/18 09:23:36;;;;;;;8.30;5.63;;;;;;;3.30;95.33;99646.22;4906076;28;103141;-84
2021/01/18 09:26:07;;;;;;;8.27;5.97;;;;;;;3.39;95.20;99644.22;4898084;28;104264;-87
2021/01/18 09:28:35;;;;;;;8.73;6.10;;;;;;;3.32;94.82;99645.28;4891221;28;106094;-88
2021/01/18 09:31:13;;;;;;;10.70;6.37;;;;;;;3.39;94.28;99644.22;4910909;28;103265;-89
2021/01/18 09:33:42;;;;;;;7.40;6.57;;;;;;;3.12;94.43;99649.34;4907836;28;103133;-85
2021/01/18 09:36:15;;;;;;;6.83;5.37;;;;;;;3.44;94.98;99651.94;4914682;28;106435;-87
2021/01/18 09:38:44;;;;;;;8.43;6.07;;;;;;;3.38;93.46;99649.47;4927002;28;103215;-89
2021/01/18 09:41:12;;;;;;;7.10;5.90;;;;;;;3.34;94.37;99647.88;4915884;28;102529;-87
2021/01/18 09:43:41;;;;;;;10.37;5.47;;;;;;;3.60;93.76;99642.72;4903207;28;103261;-88
2021/01/18 09:46:08;;;;;;;7.27;5.30;;;;;;;3.36;94.02;99648.69;4909069;28;104025;-89
2021/01/18 09:48:37;;;;;;;7.90;5.43;;;;;;;3.55;93.57;99647.25;4908646;28;104131;-79
2021/01/18 09:51:06;;;;;;;8.00;5.57;;;;;;;3.58;93.35;99649.78;4904997;28;104231;-87
2021/01/18 09:53:35;;;;;;;6.97;5.33;;;;;;;3.44;94.19;99651.94;4909395;28;102915;-87
2021/01/18 09:56:05;;;;;;;5.70;5.07;;;;;;;3.59;93.95;99646.28;4912862;28;104830;-89
2021/01/18 09:58:37;;;;;;;8.23;6.43;;;;;;;3.56;93.18;99646.34;4926802;28;103164;-85
2021/01/18 10:01:09;;;;;;;5.13;4.60;;;;;;;3.63;93.53;99645.25;4911605;28;103003;-86
2021/01/18 10:03:39;;;;;;;7.50;5.37;;;;;;;3.50;92.77;99636.06;4927579;28;102732;-86
2021/01/18 10:06:09;;;;;;;7.20;5.53;;;;;;;3.44;93.35;99637.13;4891172;28;108931;-81
2021/01/18 10:08:44;;;;;;;5.37;4.60;;;;;;;3.46;93.87;99639.66;4904118;28;103312;-86
2021/01/18 10:11:11;;;;;;;7.87;5.20;;;;;;;3.43;93.00;99629.31;4899149;28;102851;-83
2021/01/18 10:13:39;;;;;;;6.83;5.30;;;;;;;3.33;92.69;99627.88;4905747;28;102881;-84
2021/01/18 10:16:08;;;;;;;6.20;4.80;;;;;;;3.39;92.71;99625.94;4906436;28;109586;-85
2021/01/18 10:18:38;;;;;;;6.37;4.13;;;;;;;3.44;92.73;99617.97;4906287;28;112622;-83
2021/01/18 10:21:07;;;;;;;6.87;4.43;;;;;;;3.39;91.90;99612.03;4906658;28;103683;-87
2021/01/18 10:23:37;;;;;;;5.17;3.53;;;;;;;3.47;91.81;99625.72;4907958;28;102950;-90
2021/01/18 10:26:21;;;;;;;4.43;3.53;;;;;;;3.66;92.00;99616.44;4897743;28;104919;-84
2021/01/18 10:28:54;;;;;;;6.33;3.53;;;;;;;3.62;90.11;99617.41;4886619;28;103689;-76
2021/01/18 10:31:23;;;;;;;5.23;3.77;;;;;;;3.56;90.50;99609.78;4906512;28;103194;-87
2021/01/18 10:34:13;;;;;;;5.77;3.80;;;;;;;4.02;91.19;99603.97;4906914;28;102839;-83
2021/01/18 10:36:42;;;;;;;5.67;3.57;;;;;;;3.89;89.13;99610.50;4905299;28;104015;-80
2021/01/18 10:39:24;;;;;;;4.00;3.30;;;;;;;4.33;88.27;99607.31;4906990;28;103217;-80
2021/01/18 10:42:08;;;;;;;5.10;3.37;;;;;;;4.31;88.35;99600.41;4903358;28;103282;-79
2021/01/18 10:44:37;;;;;;;3.77;2.93;;;;;;;4.53;88.28;99606.66;4911998;28;103066;-80
2021/01/18 10:47:05;;;;;;;4.87;3.20;;;;;;;4.52;86.10;99602.34;4908296;28;104093;-80
2021/01/18 10:49:35;;;;;;;6.70;3.40;;;;;;;4.31;88.04;99603.03;4907651;28;106154;-80
2021/01/18 10:52:09;;;;;;;5.23;3.93;;;;;;;4.34;86.65;99595.94;4907488;28;102899;-81
2021/01/18 10:54:36;;;;;;;5.13;3.67;;;;;;;4.41;87.30;99597.44;4908011;28;103308;-80
2021/01/18 10:57:20;;;;;;;4.73;3.60;;;;;;;4.36;88.25;99596.75;4907500;28;104329;-80
2021/01/18 11:00:09;;;;;;;5.73;4.07;;;;;;;4.28;87.25;99603.13;4907638;28;103838;-80
2021/01/18 11:02:38;;;;;;;6.60;4.67;;;;;;;4.18;87.42;99599.13;4915324;28;104224;-82
2021/01/18 11:05:07;;;;;;;6.97;3.57;;;;;;;4.10;88.00;99597.59;4905374;28;104306;-79
2021/01/18 11:07:35;;;;;;;5.37;4.10;;;;;;;4.37;87.36;99601.09;4908639;28;103896;-80
2021/01/18 11:10:15;;;;;;;7.20;4.30;;;;;;;4.36;87.88;99593.28;4887962;28;105924;-80
2021/01/18 11:12:43;;;;;;;6.53;3.97;;;;;;;4.25;87.66;99603.22;4924014;28;102969;-84
2021/01/18 11:15:12;;;;;;;6.30;4.20;;;;;;;4.28;87.02;99593.53;4908454;28;103418;-78
2021/01/18 11:17:40;;;;;;;4.70;3.23;;;;;;;4.31;86.89;99595.19;4906301;28;105356;-79
2021/01/18 11:20:08;;;;;;;5.63;3.53;;;;;;;4.58;87.30;99604.72;4909367;28;103892;-85
2021/01/18 11:22:37;;;;;;;5.73;3.77;;;;;;;4.54;86.60;99600.53;4907670;28;102738;-80
2021/01/18 11:25:05;;;;;;;4.83;3.70;;;;;;;4.71;85.20;99595.56;4906537;28;102865;-82
2021/01/18 11:27:33;;;;;;;9.87;4.23;;;;;;;4.81;86.25;99596.09;4919780;28;107192;-82
2021/01/18 11:30:03;;;;;;;5.83;3.83;;;;;;;4.80;85.24;99595.22;4907084;28;102665;-81
2021/01/18 11:32:30;;;;;;;5.73;3.83;;;;;;;5.05;84.99;99582.97;4909338;28;102730;-79
2021/01/18 11:34:57;;;;;;;4.60;4.00;;;;;;;4.84;84.26;99585.50;4926157;28;102985;-83
2021/01/18 11:37:24;;;;;;;5.20;3.40;;;;;;;4.97;83.79;99574.53;4908900;28;106186;-89
2021/01/18 11:39:52;;;;;;;5.63;3.63;;;;;;;4.92;84.16;99579.09;4908146;28;104862;-77
2021/01/18 11:42:19;;;;;;;3.30;3.00;;;;;;;4.86;83.58;99578.44;4919921;28;103122;-84
2021/01/18 11:44:46;;;;;;;6.40;3.80;;;;;;;4.76;83.24;99577.94;4904596;28;102841;-80
2021/01/18 11:47:14;;;;;;;5.20;3.10;;;;;;;4.59;83.62;99577.66;4912933;28;103622;-82
2021/01/18 11:49:42;;;;;;;2.93;2.63;;;;;;;4.51;84.02;99575.31;4921152;28;103050;-80